Time;durP1;ratioP1;P1;durP2;ratioP2;P2;SDS_P1;SDS_P2;PMS_P1;PMS_P2;Temp;Humidity;BMP_temperature;BMP_pressure;BME280_temperature;BME280_humidity;BME280_pressure;Samples;Min_cycle;Max_cycle;Signal;HPM_P1;HPM_P2
2023/09/14 00:00:51;;;;;;;1.80;1.07;;;17.00;73.60;;;;;;5044100;28;20286;-85
2023/09/14 00:03:17;;;;;;;2.55;1.50;;;16.90;73.70;;;;;;5030685;28;20029;-84
2023/09/14 00:05:45;;;;;;;2.03;1.17;;;16.90;73.80;;;;;;5031597;28;20036;-85
2023/09/14 00:08:12;;;;;;;1.52;1.05;;;16.90;73.90;;;;;;5049184;28;20068;-85
2023/09/14 00:10:38;;;;;;;2.37;1.27;;;16.80;73.90;;;;;;5035320;28;20020;-85
2023/09/14 00:13:04;;;;;;;1.98;1.20;;;16.80;73.90;;;;;;5051141;28;20128;-84
2023/09/14 00:15:31;;;;;;;2.35;1.20;;;16.60;77.30;;;;;;5055756;28;20168;-85
2023/09/14 00:17:56;;;;;;;1.85;1.10;;;16.70;74.00;;;;;;5036004;28;20017;-84
2023/09/14 00:20:25;;;;;;;1.80;1.03;;;16.70;74.00;;;;;;5052172;28;20033;-85
2023/09/14 00:22:52;;;;;;;2.55;1.30;;;16.60;74.20;;;;;;5054364;28;20433;-85
2023/09/14 00:25:21;;;;;;;1.60;1.00;;;16.60;74.20;;;;;;5061551;28;20036;-85
2023/09/14 00:27:56;;;;;;;2.78;1.20;;;16.50;74.20;;;;;;5052640;28;20102;-85
2023/09/14 00:30:23;;;;;;;2.03;1.27;;;16.50;74.90;;;;;;5051780;28;20043;-85
2023/09/14 00:32:50;;;;;;;1.83;1.20;;;16.50;74.50;;;;;;5052243;28;20067;-85
2023/09/14 00:35:18;;;;;;;3.08;1.20;;;16.50;74.50;;;;;;5048532;28;20026;-85
2023/09/14 00:37:44;;;;;;;2.05;1.17;;;16.40;74.40;;;;;;5053365;28;20057;-85
2023/09/14 00:40:12;;;;;;;2.20;1.23;;;16.40;74.40;;;;;;5049085;28;20052;-85
2023/09/14 00:42:40;;;;;;;2.05;1.10;;;16.40;74.50;;;;;;5046683;28;20137;-85
2023/09/14 00:45:17;;;;;;;1.73;1.00;;;16.30;74.50;;;;;;5051335;28;20025;-85
2023/09/14 00:47:48;;;;;;;1.83;1.02;;;17.30;80.10;;;;;;5051386;28;20037;-85
2023/09/14 00:50:16;;;;;;;1.83;1.17;;;16.20;75.00;;;;;;5054905;28;20032;-84
2023/09/14 00:52:45;;;;;;;2.70;1.00;;;16.20;74.70;;;;;;5036278;28;20437;-84
2023/09/14 00:55:12;;;;;;;3.20;1.48;;;16.20;74.90;;;;;;5044214;28;20025;-86
2023/09/14 00:57:38;;;;;;;2.40;1.17;;;16.10;74.80;;;;;;5041157;28;20021;-85
2023/09/14 01:00:06;;;;;;;1.73;1.10;;;16.00;79.10;;;;;;5038279;28;20090;-84
2023/09/14 01:02:35;;;;;;;1.67;1.13;;;16.10;75.00;;;;;;5036696;22;20498;-16
2023/09/14 01:05:03;;;;;;;2.60;1.10;;;16.10;75.00;;;;;;5048224;28;20449;-17
2023/09/14 01:07:29;;;;;;;1.98;1.20;;;16.00;75.00;;;;;;5052520;28;20066;-15
2023/09/14 01:09:55;;;;;;;1.80;1.20;;;16.00;75.00;;;;;;5052814;28;20046;-14
2023/09/14 01:12:21;;;;;;;2.28;1.42;;;16.00;75.10;;;;;;5022380;28;20947;-15
2023/09/14 01:15:03;;;;;;;1.42;1.00;;;16.00;75.10;;;;;;5037013;28;20159;-15
2023/09/14 01:17:35;;;;;;;3.83;1.20;;;15.90;75.90;;;;;;5039836;28;20021;-15
2023/09/14 01:20:27;;;;;;;1.65;1.08;;;15.90;75.70;;;;;;5056658;28;20118;-14
2023/09/14 01:23:05;;;;;;;1.83;1.10;;;15.90;76.10;;;;;;5052603;28;20052;-15
2023/09/14 01:25:46;;;;;;;1.75;1.00;;;15.90;76.10;;;;;;5052132;28;20389;-14
2023/09/14 01:28:15;;;;;;;2.22;1.20;;;15.90;76.20;;;;;;5013741;28;20086;-16
2023/09/14 01:30:44;;;;;;;1.67;1.13;;;15.80;75.60;;;;;;5053446;28;20473;-15
2023/09/14 01:33:14;;;;;;;1.83;1.10;;;15.80;75.40;;;;;;5035111;28;20060;-15
2023/09/14 01:35:49;;;;;;;1.90;1.10;;;15.80;75.50;;;;;;5054815;28;20025;-15
2023/09/14 01:38:16;;;;;;;1.60;0.93;;;15.70;75.60;;;;;;5039755;28;20799;-15
2023/09/14 01:40:44;;;;;;;2.17;1.20;;;15.70;75.50;;;;;;5037942;28;20139;-14
2023/09/14 01:43:12;;;;;;;2.10;1.10;;;15.60;75.60;;;;;;5037834;28;20029;-14
2023/09/14 01:45:38;;;;;;;1.92;1.30;;;15.60;75.70;;;;;;5026717;28;20375;-14
2023/09/14 01:48:05;;;;;;;1.58;1.00;;;15.60;75.70;;;;;;5066046;28;20024;-14
2023/09/14 01:50:30;;;;;;;1.40;0.93;;;15.60;75.80;;;;;;5034649;28;20025;-14
2023/09/14 01:52:57;;;;;;;1.67;0.97;;;15.60;75.90;;;;;;5043293;28;20487;-15
2023/09/14 01:55:22;;;;;;;2.17;1.00;;;15.50;75.90;;;;;;5049558;28;20316;-16
2023/09/14 01:57:48;;;;;;;1.93;1.10;;;15.50;75.80;;;;;;5054422;28;20107;-15
2023/09/14 02:00:15;;;;;;;1.60;1.08;;;15.50;75.90;;;;;;5012852;28;20120;-14
2023/09/14 02:02:41;;;;;;;1.92;0.90;;;15.50;76.00;;;;;;5054056;28;20461;-14
2023/09/14 02:05:07;;;;;;;2.10;1.00;;;15.40;76.00;;;;;;5040822;28;20029;-15
2023/09/14 02:07:33;;;;;;;1.45;1.00;;;15.50;76.00;;;;;;5051855;28;20012;-17
2023/09/14 02:09:58;;;;;;;1.50;0.93;;;15.50;76.10;;;;;;5010960;28;20043;-16
2023/09/14 02:12:24;;;;;;;1.57;1.00;;;15.40;76.10;;;;;;5053035;28;20475;-16
2023/09/14 02:14:51;;;;;;;1.17;0.98;;;15.40;76.20;;;;;;5021505;28;20025;-16
2023/09/14 02:17:17;;;;;;;1.98;1.10;;;15.40;76.30;;;;;;5034793;28;20214;-16
2023/09/14 02:19:43;;;;;;;1.40;1.10;;;15.40;76.20;;;;;;5055832;28;20047;-16
2023/09/14 02:22:09;;;;;;;1.50;1.00;;;15.30;76.30;;;;;;5037267;28;20043;-16
2023/09/14 02:24:35;;;;;;;2.10;1.02;;;15.30;76.30;;;;;;5045977;28;20024;-16
2023/09/14 02:27:01;;;;;;;1.52;1.00;;;15.30;76.30;;;;;;5049953;28;20546;-16
2023/09/14 02:29:26;;;;;;;1.53;1.03;;;15.10;80.40;;;;;;5044806;28;20282;-16
2023/09/14 02:31:52;;;;;;;1.95;0.90;;;15.20;76.30;;;;;;5032026;28;20033;-16
2023/09/14 02:34:18;;;;;;;1.33;0.83;;;15.30;76.30;;;;;;5046404;28;20655;-16
2023/09/14 02:36:43;;;;;;;2.05;1.13;;;15.20;76.40;;;;;;5039783;28;20036;-16
2023/09/14 02:39:09;;;;;;;2.67;1.20;;;15.20;76.50;;;;;;5044871;28;20479;-16
2023/09/14 02:41:35;;;;;;;2.22;1.00;;;15.20;76.50;;;;;;5048517;28;20103;-16
2023/09/14 02:44:00;;;;;;;1.40;1.00;;;15.10;76.50;;;;;;5045252;28;20052;-17
2023/09/14 02:46:26;;;;;;;1.80;1.10;;;15.10;76.40;;;;;;5028811;28;20461;-16
2023/09/14 02:48:52;;;;;;;1.87;1.00;;;15.10;76.50;;;;;;5054152;28;20572;-16
2023/09/14 02:51:17;;;;;;;2.05;1.10;;;15.10;76.60;;;;;;5046203;28;20082;-15
2023/09/14 02:53:43;;;;;;;1.57;0.80;;;15.00;76.60;;;;;;5034040;28;20163;-16
2023/09/14 02:56:10;;;;;;;1.50;1.08;;;15.00;76.70;;;;;;5057088;28;20367;-17
2023/09/14 02:58:36;;;;;;;1.87;0.87;;;15.00;76.70;;;;;;5042950;28;20020;-16
2023/09/14 03:01:09;;;;;;;2.50;1.17;;;15.00;76.80;;;;;;5030565;28;20032;-16
2023/09/14 03:03:39;;;;;;;2.10;1.30;;;14.50;81.50;;;;;;5053325;28;20037;-16
2023/09/14 03:06:08;;;;;;;1.67;1.15;;;14.90;77.10;;;;;;5047688;28;20074;-16
2023/09/14 03:08:34;;;;;;;1.75;0.85;;;15.70;81.80;;;;;;5026530;28;20032;-16
2023/09/14 03:11:00;;;;;;;1.60;1.10;;;14.90;76.90;;;;;;5055004;28;20060;-16
2023/09/14 03:13:26;;;;;;;1.55;0.90;;;14.90;77.00;;;;;;5043899;28;20120;-16
2023/09/14 03:15:58;;;;;;;2.42;1.17;;;14.90;77.00;;;;;;5053424;28;20438;-16
2023/09/14 03:18:25;;;;;;;3.15;1.13;;;14.90;77.50;;;;;;5026263;28;20124;-14
2023/09/14 03:20:56;;;;;;;1.97;1.30;;;14.90;77.20;;;;;;5045000;28;20222;-14
2023/09/14 03:23:23;;;;;;;1.80;1.20;;;14.80;77.50;;;;;;5055331;28;20051;-15
2023/09/14 03:25:49;;;;;;;2.30;1.40;;;14.90;77.50;;;;;;5043029;28;20206;-14
2023/09/14 03:28:16;;;;;;;2.05;1.20;;;14.80;77.40;;;;;;5052633;28;20123;-15
2023/09/14 03:30:42;;;;;;;2.47;1.20;;;14.80;77.50;;;;;;5043762;28;20107;-14
2023/09/14 03:33:09;;;;;;;2.10;1.13;;;14.80;77.50;;;;;;5030664;28;20503;-14
2023/09/14 03:35:35;;;;;;;2.80;1.20;;;14.50;82.90;;;;;;5048619;28;20025;-16
2023/09/14 03:38:02;;;;;;;2.28;1.30;;;14.80;77.70;;;;;;5041607;28;20107;-14
2023/09/14 03:40:27;;;;;;;2.10;1.30;;;14.80;77.70;;;;;;5027785;28;20029;-15
2023/09/14 03:42:53;;;;;;;2.22;1.40;;;14.80;77.80;;;;;;5052393;28;20056;-14
2023/09/14 03:45:19;;;;;;;1.97;1.27;;;14.80;78.60;;;;;;5047003;28;20028;-14
2023/09/14 03:47:45;;;;;;;2.75;1.70;;;14.80;77.80;;;;;;5030269;28;20322;-15
2023/09/14 03:50:11;;;;;;;1.83;1.13;;;14.80;77.90;;;;;;5049394;28;20438;-14
2023/09/14 03:52:37;;;;;;;1.60;1.20;;;14.80;78.00;;;;;;5043436;28;20276;-14
2023/09/14 03:55:03;;;;;;;3.90;1.20;;;14.80;78.00;;;;;;5045738;28;20457;-14
2023/09/14 03:57:30;;;;;;;1.83;1.40;;;14.80;78.10;;;;;;5044790;28;20476;-14
2023/09/14 03:59:56;;;;;;;1.90;1.20;;;14.70;82.20;;;;;;5055689;28;20099;-14
2023/09/14 04:02:23;;;;;;;1.90;1.33;;;14.20;83.00;;;;;;5021701;28;20044;-15
2023/09/14 04:04:49;;;;;;;3.03;1.10;;;14.70;82.10;;;;;;5028234;28;20161;-15
2023/09/14 04:07:15;;;;;;;2.83;1.50;;;14.70;78.20;;;;;;5047655;28;20031;-14
2023/09/14 04:09:41;;;;;;;2.00;1.10;;;14.70;78.10;;;;;;5038483;28;20337;-15
2023/09/14 04:12:08;;;;;;;2.65;1.20;;;14.70;78.10;;;;;;5048868;28;20457;-15
2023/09/14 04:14:34;;;;;;;1.40;1.00;;;14.70;81.20;;;;;;5051086;28;20028;-15
2023/09/14 04:17:01;;;;;;;2.83;1.30;;;15.70;83.50;;;;;;5047724;28;20048;-14
2023/09/14 04:19:28;;;;;;;1.77;1.02;;;15.20;83.20;;;;;;5029696;28;20101;-14
2023/09/14 04:21:54;;;;;;;2.03;1.10;;;14.60;78.10;;;;;;5055957;28;20434;-14
2023/09/14 04:24:20;;;;;;;2.00;1.20;;;14.60;78.00;;;;;;5040090;28;20123;-15
2023/09/14 04:26:47;;;;;;;1.60;1.00;;;14.60;78.00;;;;;;5043296;28;20622;-15
2023/09/14 04:29:13;;;;;;;2.05;1.10;;;14.50;78.00;;;;;;5044248;28;20036;-14
2023/09/14 04:31:40;;;;;;;1.73;0.95;;;14.50;78.00;;;;;;5042416;28;20282;-14
2023/09/14 04:34:07;;;;;;;2.42;1.23;;;14.50;78.10;;;;;;5030142;28;20025;-14
2023/09/14 04:36:34;;;;;;;1.98;1.25;;;14.50;78.10;;;;;;5052873;28;20562;-17
2023/09/14 04:39:00;;;;;;;2.10;1.20;;;14.70;84.60;;;;;;5047496;28;20027;-14
2023/09/14 04:41:26;;;;;;;1.70;1.08;;;14.90;82.90;;;;;;5042722;28;20107;-14
2023/09/14 04:43:52;;;;;;;2.58;1.05;;;14.40;78.20;;;;;;5033089;28;20245;-13
2023/09/14 04:46:18;;;;;;;2.00;1.20;;;16.80;85.60;;;;;;5050604;28;20035;-15
2023/09/14 04:48:44;;;;;;;2.53;1.37;;;14.40;78.20;;;;;;5019735;28;20184;-14
2023/09/14 04:51:09;;;;;;;2.08;1.05;;;14.20;82.80;;;;;;5058067;28;20640;-14
2023/09/14 04:53:35;;;;;;;1.73;1.10;;;14.00;83.10;;;;;;5027677;28;20430;-14
2023/09/14 04:56:01;;;;;;;2.25;1.05;;;14.30;78.30;;;;;;5041538;28;20091;-15
2023/09/14 04:58:26;;;;;;;2.40;1.13;;;14.30;78.30;;;;;;5052690;28;20025;-14
2023/09/14 05:00:53;;;;;;;1.88;1.10;;;14.30;78.30;;;;;;5044964;28;20171;-14
2023/09/14 05:03:19;;;;;;;2.28;1.20;;;14.30;78.30;;;;;;5035216;28;20238;-14
2023/09/14 05:05:50;;;;;;;1.70;1.00;;;14.30;78.40;;;;;;5033221;28;20093;-14
2023/09/14 05:08:16;;;;;;;2.30;1.17;;;14.20;78.70;;;;;;5031507;28;20275;-15
2023/09/14 05:10:42;;;;;;;2.25;1.00;;;14.20;82.50;;;;;;5023214;28;20035;-14
2023/09/14 05:13:08;;;;;;;1.37;1.00;;;14.30;78.60;;;;;;5050883;28;20068;-14
2023/09/14 05:15:34;;;;;;;2.20;1.10;;;14.20;78.60;;;;;;5039702;28;20024;-15
2023/09/14 05:17:59;;;;;;;1.70;1.00;;;14.20;78.70;;;;;;5044369;28;20017;-14
2023/09/14 05:20:25;;;;;;;2.00;1.43;;;14.10;82.80;;;;;;5023435;28;20062;-15
2023/09/14 05:22:51;;;;;;;1.98;1.10;;;15.60;83.80;;;;;;5041102;28;20546;-14
2023/09/14 05:25:17;;;;;;;3.10;1.47;;;14.10;78.80;;;;;;5043283;28;20075;-14
2023/09/14 05:27:42;;;;;;;2.53;1.10;;;14.20;78.90;;;;;;5039174;28;20035;-14
2023/09/14 05:30:09;;;;;;;2.40;1.25;;;14.10;78.90;;;;;;5034986;28;20071;-15
2023/09/14 05:32:36;;;;;;;2.00;1.30;;;14.60;83.80;;;;;;5051676;28;20107;-17
2023/09/14 05:35:02;;;;;;;2.25;1.50;;;14.10;79.20;;;;;;5026484;28;20025;-14
2023/09/14 05:37:28;;;;;;;2.30;1.42;;;13.60;83.40;;;;;;5026327;28;20021;-14
2023/09/14 05:39:54;;;;;;;2.40;1.35;;;13.90;83.50;;;;;;5032455;28;20903;-17
2023/09/14 05:42:22;;;;;;;2.60;1.40;;;14.00;83.90;;;;;;5027421;28;20169;-16
2023/09/14 05:44:48;;;;;;;2.63;1.52;;;14.20;79.70;;;;;;5046312;28;20436;-19
2023/09/14 05:47:14;;;;;;;2.15;1.38;;;13.20;84.70;;;;;;5037320;28;20106;-16
2023/09/14 05:49:40;;;;;;;3.53;1.50;;;14.20;79.80;;;;;;5032003;28;20697;-17
2023/09/14 05:52:06;;;;;;;2.67;1.33;;;12.90;81.00;;;;;;5030009;28;20048;-16
2023/09/14 05:54:33;;;;;;;2.30;1.43;;;14.90;84.40;;;;;;5038037;28;20078;-16
2023/09/14 05:56:58;;;;;;;2.72;1.50;;;14.30;80.10;;;;;;5016935;28;20243;-17
2023/09/14 05:59:24;;;;;;;2.67;1.55;;;14.30;80.10;;;;;;5052162;28;20054;-16
2023/09/14 06:01:51;;;;;;;2.40;1.40;;;13.50;85.20;;;;;;5029484;28;20101;-16
2023/09/14 06:04:17;;;;;;;1.95;1.25;;;14.40;80.40;;;;;;5045831;28;20024;-16
2023/09/14 06:06:43;;;;;;;3.05;1.50;;;14.50;80.40;;;;;;5035325;28;21009;-16
2023/09/14 06:09:09;;;;;;;3.95;1.30;;;14.50;80.50;;;;;;5039058;28;20081;-17
2023/09/14 06:11:34;;;;;;;2.90;1.40;;;14.50;80.50;;;;;;5022074;28;20040;-16
2023/09/14 06:14:00;;;;;;;2.63;1.52;;;14.30;84.40;;;;;;5035342;28;20283;-16
2023/09/14 06:16:26;;;;;;;4.05;1.70;;;14.10;84.60;;;;;;5051091;28;20099;-16
2023/09/14 06:18:52;;;;;;;2.28;1.50;;;14.60;80.80;;;;;;5033013;28;20550;-16
2023/09/14 06:21:18;;;;;;;3.10;1.80;;;14.70;81.00;;;;;;5055341;28;20123;-18
2023/09/14 06:23:44;;;;;;;2.37;1.60;;;14.70;81.20;;;;;;5028165;28;20147;-16
2023/09/14 06:26:10;;;;;;;2.70;1.80;;;14.80;81.40;;;;;;5041058;28;20931;-16
2023/09/14 06:28:36;;;;;;;3.47;1.77;;;14.60;85.20;;;;;;5034744;28;20122;-18
2023/09/14 06:31:02;;;;;;;2.88;1.75;;;15.20;85.60;;;;;;5048333;28;20188;-16
2023/09/14 06:33:28;;;;;;;3.80;1.90;;;14.90;85.80;;;;;;5031116;28;20078;-16
2023/09/14 06:35:54;;;;;;;2.95;1.88;;;14.70;85.60;;;;;;5030175;28;20213;-16
2023/09/14 06:38:20;;;;;;;3.72;2.10;;;15.00;82.10;;;;;;5034025;28;20029;-16
2023/09/14 06:40:46;;;;;;;3.97;2.03;;;15.10;82.30;;;;;;5014487;28;20129;-16
2023/09/14 06:43:12;;;;;;;2.80;1.67;;;16.00;86.90;;;;;;5047262;28;20066;-16
2023/09/14 06:45:37;;;;;;;4.80;1.90;;;14.50;87.20;;;;;;5040125;28;20036;-16
2023/09/14 06:48:03;;;;;;;2.47;1.70;;;14.40;88.20;;;;;;5036555;28;20420;-16
2023/09/14 06:50:29;;;;;;;3.90;1.90;;;15.40;82.90;;;;;;5043627;28;20029;-16
2023/09/14 06:52:56;;;;;;;3.27;1.80;;;15.30;86.70;;;;;;5048418;28;20033;-16
2023/09/14 06:55:22;;;;;;;2.78;1.77;;;15.50;83.10;;;;;;5025918;28;20039;-16
2023/09/14 06:57:48;;;;;;;4.82;2.28;;;15.60;83.30;;;;;;5020949;28;20030;-16
2023/09/14 07:00:15;;;;;;;3.20;1.80;;;15.80;86.80;;;;;;5031930;28;20009;-16
2023/09/14 07:02:42;;;;;;;2.90;2.17;;;15.70;87.10;;;;;;5052740;28;20037;-16
2023/09/14 07:05:11;;;;;;;3.10;2.00;;;15.30;88.10;;;;;;5046358;28;20526;-16
2023/09/14 07:07:41;;;;;;;2.95;1.88;;;16.30;89.10;;;;;;5037455;28;20154;-16
2023/09/14 07:10:08;;;;;;;3.40;2.20;;;16.10;90.20;;;;;;5020887;28;20180;-16
2023/09/14 07:12:35;;;;;;;3.20;2.30;;;16.60;87.70;;;;;;5033436;28;20430;-16
2023/09/14 07:15:01;;;;;;;3.25;1.85;;;16.60;89.80;;;;;;5033178;28;20102;-16
2023/09/14 07:17:27;;;;;;;4.18;2.05;;;17.30;87.50;;;;;;5051453;28;20024;-16
2023/09/14 07:19:53;;;;;;;3.10;1.95;;;17.60;86.80;;;;;;5038935;28;20713;-16
2023/09/14 07:22:19;;;;;;;2.97;1.90;;;17.90;86.50;;;;;;5040843;28;20529;-16
2023/09/14 07:24:46;;;;;;;2.83;2.10;;;18.10;87.30;;;;;;5044764;28;20132;-17
2023/09/14 07:27:13;;;;;;;2.72;1.75;;;18.40;88.40;;;;;;5009793;28;20721;-16
2023/09/14 07:29:39;;;;;;;3.65;1.85;;;18.60;90.50;;;;;;5051542;28;20016;-17
2023/09/14 07:32:04;;;;;;;3.07;2.30;;;19.70;91.10;;;;;;5032706;28;20036;-16
2023/09/14 07:34:31;;;;;;;3.25;2.15;;;20.70;91.20;;;;;;5053358;28;20112;-17
2023/09/14 07:36:56;;;;;;;3.78;2.30;;;20.30;90.80;;;;;;5033621;28;20426;-16
2023/09/14 07:39:22;;;;;;;3.10;2.17;;;20.90;90.80;;;;;;5047116;28;20230;-17
2023/09/14 07:41:48;;;;;;;4.22;2.38;;;21.50;90.80;;;;;;5028854;28;20264;-18
2023/09/14 07:44:14;;;;;;;3.33;2.30;;;22.10;90.80;;;;;;5036189;28;20354;-16
2023/09/14 07:46:39;;;;;;;3.33;2.42;;;22.60;90.60;;;;;;5035565;28;20087;-17
2023/09/14 07:49:06;;;;;;;3.93;2.50;;;23.10;90.30;;;;;;5047505;28;20194;-16
2023/09/14 07:51:31;;;;;;;3.78;2.47;;;23.60;90.00;;;;;;5036136;28;20780;-16
2023/09/14 07:53:59;;;;;;;5.32;2.72;;;24.10;89.60;;;;;;5046434;28;20029;-16
2023/09/14 07:56:25;;;;;;;3.47;2.50;;;24.60;89.10;;;;;;5024689;28;20696;-17
2023/09/14 07:58:53;;;;;;;3.80;2.73;;;25.00;88.50;;;;;;5038790;28;20040;-17
2023/09/14 08:01:19;;;;;;;4.28;3.00;;;25.40;87.90;;;;;;5031722;28;20257;-17
2023/09/14 08:03:45;;;;;;;4.75;2.65;;;27.80;85.60;;;;;;5050942;28;20089;-16
2023/09/14 08:06:11;;;;;;;4.53;2.47;;;26.20;86.50;;;;;;5028456;28;20050;-16
2023/09/14 08:08:37;;;;;;;3.30;2.60;;;26.60;85.70;;;;;;5042538;28;20020;-17
2023/09/14 08:11:03;;;;;;;3.78;2.47;;;26.90;84.80;;;;;;5026423;28;20425;-16
2023/09/14 08:13:28;;;;;;;4.47;2.80;;;27.20;83.70;;;;;;5013724;28;20157;-17
2023/09/14 08:15:54;;;;;;;4.07;2.80;;;27.40;82.80;;;;;;5033758;28;20033;-16
2023/09/14 08:18:20;;;;;;;4.85;2.55;;;27.60;82.30;;;;;;5030483;28;20712;-18
2023/09/14 08:20:49;;;;;;;3.47;2.30;;;27.80;81.50;;;;;;5051492;28;20032;-17
2023/09/14 08:23:15;;;;;;;5.45;2.80;;;27.90;80.90;;;;;;5032762;28;20036;-17
2023/09/14 08:25:43;;;;;;;4.57;2.53;;;28.00;79.80;;;;;;5055323;28;20111;-17
2023/09/14 08:28:19;;;;;;;4.13;2.53;;;28.10;77.70;;;;;;5022267;28;20033;-16
2023/09/14 08:30:47;;;;;;;3.70;2.38;;;28.10;76.30;;;;;;5042533;28;20024;-17
2023/09/14 08:33:13;;;;;;;3.80;2.40;;;28.30;78.20;;;;;;5040257;28;20262;-17
2023/09/14 08:35:39;;;;;;;4.10;2.33;;;28.30;77.50;;;;;;5041890;28;20028;-16
2023/09/14 08:38:06;;;;;;;4.82;2.63;;;28.30;76.80;;;;;;5041940;28;20036;-16
2023/09/14 08:40:33;;;;;;;3.85;2.05;;;28.40;76.60;;;;;;5040186;28;20013;-16
2023/09/14 08:43:00;;;;;;;3.00;2.13;;;28.50;76.40;;;;;;5026841;28;20036;-19
2023/09/14 08:45:33;;;;;;;3.37;2.37;;;28.60;76.20;;;;;;5034529;28;20312;-16
2023/09/14 08:48:01;;;;;;;2.85;2.08;;;28.70;74.30;;;;;;5041964;28;20058;-16
2023/09/14 08:50:32;;;;;;;3.20;2.40;;;28.80;75.40;;;;;;5048448;28;20500;-18
2023/09/14 08:52:58;;;;;;;3.30;2.17;;;28.90;74.40;;;;;;5032121;28;20354;-16
2023/09/14 08:55:28;;;;;;;3.33;2.00;;;28.70;72.20;;;;;;5030841;28;20025;-16
2023/09/14 08:57:55;;;;;;;4.07;2.17;;;29.20;74.60;;;;;;5023301;28;20025;-16
2023/09/14 09:00:24;;;;;;;3.05;2.10;;;29.40;74.60;;;;;;5044059;28;20133;-16
2023/09/14 09:02:53;;;;;;;2.97;2.13;;;29.60;74.70;;;;;;5031293;28;20045;-16
2023/09/14 09:05:20;;;;;;;3.67;1.92;;;29.80;74.40;;;;;;5035724;28;20036;-17
2023/09/14 09:07:48;;;;;;;2.55;1.98;;;30.00;74.80;;;;;;5040514;28;20024;-15
2023/09/14 09:10:14;;;;;;;3.03;1.93;;;30.30;74.10;;;;;;5035532;28;20060;-17
2023/09/14 09:12:40;;;;;;;3.00;2.63;;;30.60;74.40;;;;;;5036679;28;20121;-16
2023/09/14 09:15:07;;;;;;;3.90;2.10;;;30.90;73.40;;;;;;5019300;28;20260;-16
2023/09/14 09:17:38;;;;;;;2.80;2.10;;;31.10;72.00;;;;;;5031794;28;20070;-16
2023/09/14 09:20:19;;;;;;;2.70;2.05;;;31.20;69.90;;;;;;5018596;28;20238;-16
2023/09/14 09:22:45;;;;;;;3.05;2.10;;;31.40;67.80;;;;;;5033884;28;20051;-16
2023/09/14 09:25:12;;;;;;;2.42;1.90;;;31.60;70.20;;;;;;5042062;28;20127;-16
2023/09/14 09:27:39;;;;;;;3.77;2.07;;;31.80;69.60;;;;;;5032950;28;20024;-16
2023/09/14 09:30:06;;;;;;;3.25;1.98;;;32.00;69.30;;;;;;5023363;28;20318;-16
2023/09/14 09:32:32;;;;;;;2.95;2.08;;;32.10;68.60;;;;;;5062008;28;20524;-16
2023/09/14 09:35:17;;;;;;;2.35;2.10;;;32.40;68.30;;;;;;5026566;28;20032;-17
2023/09/14 09:37:42;;;;;;;3.08;2.13;;;32.60;64.70;;;;;;5039154;28;20238;-17
2023/09/14 09:40:16;;;;;;;2.27;1.90;;;32.80;68.00;;;;;;5036424;28;20033;-17
2023/09/14 09:42:42;;;;;;;2.90;2.30;;;33.10;64.70;;;;;;5030073;28;20689;-17
2023/09/14 09:45:09;;;;;;;2.55;2.00;;;33.40;66.80;;;;;;5050906;28;20093;-17
2023/09/14 09:47:35;;;;;;;3.15;2.40;;;33.60;65.80;;;;;;5043460;28;20276;-17
2023/09/14 09:50:05;;;;;;;2.63;2.00;;;33.80;65.40;;;;;;5043036;28;20135;-17
2023/09/14 09:52:34;;;;;;;3.30;2.25;;;34.00;64.10;;;;;;5038491;28;20028;-16
2023/09/14 09:55:00;;;;;;;2.83;2.30;;;34.20;62.30;;;;;;5031203;28;20080;-17
2023/09/14 09:57:30;;;;;;;2.33;1.90;;;34.30;61.90;;;;;;5040516;28;20045;-16
2023/09/14 09:59:57;;;;;;;3.40;1.75;;;34.30;59.00;;;;;;5045132;28;20489;-17
2023/09/14 10:02:32;;;;;;;2.20;1.57;;;34.30;59.60;;;;;;5019128;28;20086;-16
2023/09/14 10:05:00;;;;;;;2.40;1.73;;;34.30;57.80;;;;;;5039857;28;20094;-18
2023/09/14 10:07:26;;;;;;;2.35;1.90;;;34.40;59.40;;;;;;5034635;28;20021;-16
2023/09/14 10:09:54;;;;;;;2.10;1.50;;;34.40;58.60;;;;;;5053496;28;20023;-16
2023/09/14 10:12:24;;;;;;;2.63;1.83;;;34.20;57.30;;;;;;5040281;28;21060;-16
2023/09/14 10:14:58;;;;;;;2.60;1.50;;;34.10;56.50;;;;;;5022327;28;20798;-17
2023/09/14 10:17:28;;;;;;;1.67;1.58;;;33.90;56.80;;;;;;5025702;28;20226;-16
2023/09/14 10:19:55;;;;;;;2.10;1.80;;;33.90;57.50;;;;;;5046204;28;20079;-15
2023/09/14 10:22:23;;;;;;;2.28;1.95;;;33.90;57.40;;;;;;5044213;28;20043;-16
2023/09/14 10:24:50;;;;;;;2.20;1.70;;;34.10;56.70;;;;;;5028113;28;20149;-14
2023/09/14 10:27:16;;;;;;;2.00;1.73;;;34.20;57.20;;;;;;5039637;28;20041;-16
2023/09/14 10:29:43;;;;;;;2.78;1.88;;;34.30;56.80;;;;;;5034160;28;20297;-15
2023/09/14 10:32:11;;;;;;;2.03;1.80;;;34.40;55.90;;;;;;5031872;28;20487;-15
2023/09/14 10:34:41;;;;;;;2.83;1.73;;;35.30;55.40;;;;;;5029189;28;20060;-15
2023/09/14 10:37:11;;;;;;;1.93;1.73;;;34.60;55.70;;;;;;5043932;28;20115;-15
2023/09/14 10:39:37;;;;;;;1.90;1.80;;;34.70;54.90;;;;;;5034891;28;20172;-15
2023/09/14 10:42:05;;;;;;;1.70;1.60;;;34.90;55.30;;;;;;5040624;28;20060;-15
2023/09/14 10:44:32;;;;;;;1.77;1.38;;;35.00;54.90;;;;;;5037396;28;20048;-16
2023/09/14 10:47:00;;;;;;;1.50;1.40;;;35.20;54.90;;;;;;5045310;28;20524;-14
2023/09/14 10:49:32;;;;;;;1.30;1.20;;;35.30;53.70;;;;;;5023197;28;20036;-15
2023/09/14 10:51:57;;;;;;;1.70;1.60;;;35.40;52.90;;;;;;5025745;28;20111;-14
2023/09/14 10:54:30;;;;;;;1.65;1.55;;;35.50;53.50;;;;;;5036547;28;20505;-15
2023/09/14 10:57:01;;;;;;;2.03;1.67;;;35.50;52.30;;;;;;5043717;28;20025;-15
2023/09/14 10:59:54;;;;;;;2.05;1.52;;;35.60;51.90;;;;;;5028059;28;20029;-15
2023/09/14 11:02:45;;;;;;;1.95;1.60;;;35.70;50.40;;;;;;5041980;28;20052;-15
2023/09/14 11:05:17;;;;;;;2.90;1.52;;;35.50;48.70;;;;;;5042943;28;20718;-15
2023/09/14 11:07:46;;;;;;;1.50;1.40;;;35.20;49.10;;;;;;5024740;28;20093;-18
2023/09/14 11:10:16;;;;;;;1.90;1.40;;;34.90;50.10;;;;;;5037179;28;20645;-15
2023/09/14 11:12:43;;;;;;;1.90;1.48;;;34.80;49.70;;;;;;5045859;28;20029;-16
2023/09/14 11:15:22;;;;;;;1.55;1.40;;;34.60;50.00;;;;;;5040607;28;20343;-15
2023/09/14 11:17:52;;;;;;;1.67;1.10;;;34.40;48.30;;;;;;5041004;28;20029;-16
2023/09/14 11:20:24;;;;;;;1.20;1.10;;;34.10;48.40;;;;;;5047156;28;20063;-17
2023/09/14 11:22:52;;;;;;;1.77;1.30;;;33.80;48.60;;;;;;5037152;28;20037;-16
2023/09/14 11:25:30;;;;;;;2.72;1.27;;;33.00;48.50;;;;;;5033516;28;20086;-15
2023/09/14 11:28:00;;;;;;;1.42;1.30;;;33.00;47.80;;;;;;5047052;28;20276;-15
2023/09/14 11:30:27;;;;;;;2.05;1.33;;;32.60;48.40;;;;;;5043844;28;20486;-15
2023/09/14 11:32:54;;;;;;;1.73;1.30;;;32.40;49.80;;;;;;5035441;28;20027;-16
2023/09/14 11:35:40;;;;;;;1.70;1.30;;;32.30;50.40;;;;;;5024847;28;20086;-15
2023/09/14 11:38:18;;;;;;;2.65;1.20;;;32.30;49.80;;;;;;5023589;28;20243;-15
2023/09/14 11:40:44;;;;;;;1.80;1.40;;;32.40;49.80;;;;;;5037140;28;20089;-16
2023/09/14 11:43:20;;;;;;;1.67;1.38;;;32.40;51.40;;;;;;5051663;28;20048;-15
2023/09/14 11:45:46;;;;;;;1.60;1.30;;;32.60;52.30;;;;;;5050161;28;20086;-16
2023/09/14 11:48:13;;;;;;;1.70;1.30;;;32.80;52.20;;;;;;5044527;28;22117;-15
2023/09/14 11:50:46;;;;;;;1.85;1.30;;;33.00;51.60;;;;;;5032540;28;20035;-16
2023/09/14 11:53:18;;;;;;;2.10;1.40;;;33.10;50.40;;;;;;5025361;28;20028;-15
2023/09/14 11:55:53;;;;;;;2.17;1.40;;;33.10;49.80;;;;;;5045649;28;20031;-16
2023/09/14 11:58:23;;;;;;;1.58;1.20;;;33.10;49.10;;;;;;5050005;28;20025;-15
2023/09/14 12:00:50;;;;;;;1.60;1.00;;;33.00;48.60;;;;;;5062059;28;20028;-16
2023/09/14 12:03:16;;;;;;;1.67;1.33;;;32.70;48.20;;;;;;5037147;28;20056;-15
2023/09/14 12:05:42;;;;;;;1.48;1.05;;;32.40;48.10;;;;;;5006604;28;20041;-16
2023/09/14 12:08:13;;;;;;;1.60;1.13;;;32.20;48.40;;;;;;5056594;28;20312;-14
2023/09/14 12:10:41;;;;;;;2.28;1.40;;;31.90;48.20;;;;;;5022538;28;20028;-15
2023/09/14 12:13:17;;;;;;;1.10;1.00;;;31.80;49.00;;;;;;5042888;28;20217;-15
2023/09/14 12:15:44;;;;;;;1.40;1.30;;;31.80;49.00;;;;;;5054660;28;20029;-16
2023/09/14 12:18:10;;;;;;;1.90;1.50;;;32.00;51.00;;;;;;5050057;28;20168;-15
2023/09/14 12:20:41;;;;;;;1.30;1.20;;;32.30;51.70;;;;;;5044985;28;20261;-16
2023/09/14 12:23:09;;;;;;;1.52;1.30;;;32.50;50.50;;;;;;5039646;28;20128;-15
2023/09/14 12:25:37;;;;;;;1.58;1.40;;;32.70;50.10;;;;;;5043567;28;20715;-15
2023/09/14 12:28:05;;;;;;;2.05;1.40;;;32.70;49.00;;;;;;5039887;28;20025;-15
2023/09/14 12:30:32;;;;;;;1.27;1.10;;;32.60;48.40;;;;;;5057576;28;20608;-15
2023/09/14 12:33:00;;;;;;;1.83;1.00;;;32.50;48.50;;;;;;5040232;28;20059;-15
2023/09/14 12:35:26;;;;;;;1.23;1.13;;;32.40;48.70;;;;;;5047446;28;20028;-15
2023/09/14 12:37:58;;;;;;;1.15;1.00;;;32.40;49.10;;;;;;5027726;28;20028;-16
2023/09/14 12:40:25;;;;;;;1.25;1.10;;;32.40;49.10;;;;;;5039165;28;20445;-17
2023/09/14 12:42:50;;;;;;;2.13;1.10;;;32.40;48.70;;;;;;5035726;28;20039;-16
2023/09/14 12:45:18;;;;;;;2.25;1.15;;;32.40;48.40;;;;;;5053581;28;20016;-17
2023/09/14 12:47:48;;;;;;;1.48;1.20;;;32.20;47.80;;;;;;5045718;28;20039;-16
2023/09/14 12:50:17;;;;;;;1.48;1.25;;;32.10;47.90;;;;;;5071120;28;20040;-17